Time;durP1;ratioP1;P1;durP2;ratioP2;P2;SDS_P1;SDS_P2;PMS_P1;PMS_P2;Temp;Humidity;BMP_temperature;BMP_pressure;BME280_temperature;BME280_humidity;BME280_pressure;Samples;Min_cycle;Max_cycle;Signal;HPM_P1;HPM_P2
2022/11/15 00:01:17;;;;;;;;;;;;;;;12.10;nan;101645.63;5005243;28;20176;-39
2022/11/15 00:03:42;;;;;;;;;;;;;;;12.08;nan;101655.81;5005303;28;19944;-37
2022/11/15 00:06:08;;;;;;;;;;;;;;;12.08;nan;101655.81;5006197;28;20395;-37
2022/11/15 00:08:34;;;;;;;;;;;;;;;12.05;nan;101648.22;5005721;28;19925;-38
2022/11/15 00:11:00;;;;;;;;;;;;;;;12.04;nan;101646.59;5005035;28;19932;-40
2022/11/15 00:13:26;;;;;;;;;;;;;;;12.02;nan;101645.16;5006440;28;19921;-43
2022/11/15 00:15:51;;;;;;;;;;;;;;;12.00;nan;101633.84;5006484;28;20435;-37
2022/11/15 00:18:17;;;;;;;;;;;;;;;11.98;nan;101639.44;5008640;28;19917;-37
2022/11/15 00:20:42;;;;;;;;;;;;;;;11.99;nan;101637.59;5005465;28;20295;-42
2022/11/15 00:23:08;;;;;;;;;;;;;;;11.99;nan;101624.97;5004420;28;20268;-37
2022/11/15 00:25:33;;;;;;;;;;;;;;;12.00;nan;101625.78;5004738;28;19918;-41
2022/11/15 00:27:59;;;;;;;;;;;;;;;11.95;nan;101620.31;5006956;28;19975;-39
2022/11/15 00:30:25;;;;;;;;;;;;;;;11.93;nan;101617.06;5005312;28;19921;-43
2022/11/15 00:32:50;;;;;;;;;;;;;;;11.94;nan;101608.75;5005531;28;20141;-39
2022/11/15 00:35:16;;;;;;;;;;;;;;;11.95;nan;101620.31;5003889;28;19978;-40
2022/11/15 00:37:41;;;;;;;;;;;;;;;11.95;nan;101609.56;5000052;28;19921;-40
2022/11/15 00:40:07;;;;;;;;;;;;;;;11.93;nan;101606.31;5006886;28;20272;-38
2022/11/15 00:42:32;;;;;;;;;;;;;;;11.89;nan;101603.28;5001291;28;20299;-39
2022/11/15 00:44:58;;;;;;;;;;;;;;;11.84;nan;101602.34;5006266;28;20507;-38
2022/11/15 00:47:23;;;;;;;;;;;;;;;11.80;nan;101592.06;5006646;28;19918;-41
2022/11/15 00:49:49;;;;;;;;;;;;;;;11.81;nan;101598.25;5005318;28;20011;-39
2022/11/15 00:52:14;;;;;;;;;;;;;;;11.82;nan;101599.06;5005330;28;20246;-41
2022/11/15 00:54:39;;;;;;;;;;;;;;;11.80;nan;101589.38;5002987;28;19957;-39
2022/11/15 00:57:05;;;;;;;;;;;;;;;11.81;nan;101590.19;5005821;28;19933;-40
2022/11/15 00:59:30;;;;;;;;;;;;;;;11.78;nan;101594.19;5005456;28;19925;-41
2022/11/15 01:01:55;;;;;;;;;;;;;;;11.77;nan;101578.28;5005536;28;19917;-40
2022/11/15 01:04:20;;;;;;;;;;;;;;;11.76;nan;101580.16;5003664;28;19932;-39
2022/11/15 01:06:46;;;;;;;;;;;;;;;11.78;nan;101569.16;5000334;28;19960;-39
2022/11/15 01:09:11;;;;;;;;;;;;;;;11.78;nan;101570.00;5006030;28;19929;-39
2022/11/15 01:11:37;;;;;;;;;;;;;;;11.79;nan;101568.16;5005238;28;20414;-41
2022/11/15 01:14:02;;;;;;;;;;;;;;;11.79;nan;101568.16;5002809;28;19918;-39
2022/11/15 01:16:27;;;;;;;;;;;;;;;11.77;nan;101572.91;5003121;28;19932;-39
2022/11/15 01:18:53;;;;;;;;;;;;;;;11.76;nan;101571.28;5003565;28;19925;-42
2022/11/15 01:21:18;;;;;;;;;;;;;;;11.74;nan;101571.50;5004375;28;19917;-41
2022/11/15 01:23:44;;;;;;;;;;;;;;;11.71;nan;101561.25;5003835;28;20269;-38
2022/11/15 01:26:11;;;;;;;;;;;;;;;11.70;nan;101561.50;5003032;28;19922;-40
2022/11/15 01:28:37;;;;;;;;;;;;;;;11.68;nan;101555.53;5003936;28;20381;-41
2022/11/15 01:31:04;;;;;;;;;;;;;;;11.63;nan;101550.84;5003942;28;20024;-37
2022/11/15 01:33:30;;;;;;;;;;;;;;;11.59;nan;101551.56;5000806;28;19964;-41
2022/11/15 01:35:55;;;;;;;;;;;;;;;11.55;nan;101545.03;5002492;28;19953;-41
2022/11/15 01:38:21;;;;;;;;;;;;;;;11.49;nan;101544.94;5002429;28;19953;-40
2022/11/15 01:40:47;;;;;;;;;;;;;;;11.43;nan;101537.00;5000739;28;20477;-39
2022/11/15 01:43:22;;;;;;;;;;;;;;;11.41;nan;101533.72;5003682;28;19921;-40
2022/11/15 01:45:51;;;;;;;;;;;;;;;11.39;nan;101552.75;5003533;28;19925;-40
2022/11/15 01:48:16;;;;;;;;;;;;;;;11.36;nan;101547.03;5005412;28;20391;-38
2022/11/15 01:50:41;;;;;;;;;;;;;;;11.29;nan;101541.78;4999667;28;20063;-40
2022/11/15 01:53:07;;;;;;;;;;;;;;;11.28;nan;101536.66;5004753;28;20387;-41
2022/11/15 01:55:32;;;;;;;;;;;;;;;11.27;nan;101525.09;5004663;28;20315;-40
2022/11/15 01:57:59;;;;;;;;;;;;;;;11.28;nan;101518.69;5005160;28;19917;-38
2022/11/15 02:00:25;;;;;;;;;;;;;;;11.31;nan;101514.72;5003594;28;20504;-36
2022/11/15 02:02:50;;;;;;;;;;;;;;;11.30;nan;101515.75;5002712;28;19921;-40
2022/11/15 02:05:15;;;;;;;;;;;;;;;11.29;nan;101511.44;5006527;28;19921;-36
2022/11/15 02:07:42;;;;;;;;;;;;;;;11.27;nan;101514.38;5002930;28;19928;-38
2022/11/15 02:10:12;;;;;;;;;;;;;;;11.24;nan;101522.06;5004524;28;19922;-39
2022/11/15 02:12:37;;;;;;;;;;;;;;;11.24;nan;101509.47;5003633;28;20195;-39
2022/11/15 02:15:04;;;;;;;;;;;;;;;11.25;nan;101513.78;5005392;28;20103;-39
2022/11/15 02:17:45;;;;;;;;;;;;;;;11.26;nan;101510.06;5004231;28;19921;-41
2022/11/15 02:20:29;;;;;;;;;;;;;;;11.24;nan;101512.16;5003349;28;19933;-40
2022/11/15 02:23:03;;;;;;;;;;;;;;;11.22;nan;101508.06;5003239;28;19922;-40
2022/11/15 02:25:35;;;;;;;;;;;;;;;11.23;nan;101510.53;5003203;28;19975;-39
2022/11/15 02:28:16;;;;;;;;;;;;;;;11.26;nan;101510.06;5003632;28;19972;-40
2022/11/15 02:30:47;;;;;;;;;;;;;;;11.25;nan;101510.28;5001181;28;21016;-39
2022/11/15 02:33:35;;;;;;;;;;;;;;;11.27;nan;101517.03;5001857;28;20016;-41
2022/11/15 02:36:14;;;;;;;;;;;;;;;11.31;nan;101517.38;5003907;28;19979;-38
2022/11/15 02:38:42;;;;;;;;;;;;;;;11.32;nan;101506.47;5002489;28;20993;-36
2022/11/15 02:41:13;;;;;;;;;;;;;;;11.35;nan;101503.31;5001276;28;20414;-38
2022/11/15 02:43:56;;;;;;;;;;;;;;;11.37;nan;101505.75;5003577;28;19918;-37
2022/11/15 02:46:22;;;;;;;;;;;;;;;11.34;nan;101493.63;5005719;28;19924;-36
2022/11/15 02:48:47;;;;;;;;;;;;;;;11.38;nan;101493.97;5003423;28;20295;-41
2022/11/15 02:51:13;;;;;;;;;;;;;;;11.41;nan;101494.28;4999584;28;20375;-39
2022/11/15 02:53:38;;;;;;;;;;;;;;;11.44;nan;101490.31;4999971;28;19933;-38
2022/11/15 02:56:04;;;;;;;;;;;;;;;11.49;nan;101493.97;4999008;28;19922;-39
2022/11/15 02:58:47;;;;;;;;;;;;;;;11.51;nan;101485.66;5000588;28;20000;-40
2022/11/15 03:01:24;;;;;;;;;;;;;;;11.46;nan;101480.97;5000587;28;20012;-36
2022/11/15 03:04:12;;;;;;;;;;;;;;;11.45;nan;101486.59;4998927;28;19921;-41
2022/11/15 03:06:38;;;;;;;;;;;;;;;11.42;nan;101477.16;4985006;28;20335;-42
2022/11/15 03:09:07;;;;;;;;;;;;;;;11.42;nan;101476.34;4997181;28;20379;-40
2022/11/15 03:11:36;;;;;;;;;;;;;;;11.39;nan;101482.19;5002079;28;19917;-40
2022/11/15 03:14:05;;;;;;;;;;;;;;;11.37;nan;101479.72;4996986;28;19917;-39
2022/11/15 03:16:36;;;;;;;;;;;;;;;11.41;nan;101472.84;5003154;28;19982;-40
2022/11/15 03:19:09;;;;;;;;;;;;;;;11.41;nan;101474.69;5001344;28;20072;-40
2022/11/15 03:21:37;;;;;;;;;;;;;;;11.43;nan;101472.59;5004671;28;19917;-39
2022/11/15 03:24:05;;;;;;;;;;;;;;;11.42;nan;101473.66;4998433;28;20080;-39
2022/11/15 03:26:31;;;;;;;;;;;;;;;11.42;nan;101470.97;4999976;28;20401;-40
2022/11/15 03:29:00;;;;;;;;;;;;;;;11.40;nan;101478.44;5002444;28;19922;-38
2022/11/15 03:31:46;;;;;;;;;;;;;;;11.38;nan;101467.13;5001270;28;20343;-37
2022/11/15 03:34:18;;;;;;;;;;;;;;;11.33;nan;101462.47;5001795;28;19968;-40
2022/11/15 03:36:44;;;;;;;;;;;;;;;11.36;nan;101470.06;5000379;28;20466;-40
2022/11/15 03:39:11;;;;;;;;;;;;;;;11.38;nan;101461.75;5004586;28;19923;-37
2022/11/15 03:41:40;;;;;;;;;;;;;;;11.31;nan;101461.06;5005775;28;19929;-37
2022/11/15 03:44:17;;;;;;;;;;;;;;;11.27;nan;101457.22;5006949;28;20020;-39
2022/11/15 03:46:46;;;;;;;;;;;;;;;11.20;nan;101463.53;5002585;28;19927;-38
2022/11/15 03:49:15;;;;;;;;;;;;;;;11.20;nan;101466.22;5004015;28;19929;-38
2022/11/15 03:51:40;;;;;;;;;;;;;;;11.20;nan;101463.53;5006875;28;19921;-38
2022/11/15 03:54:06;;;;;;;;;;;;;;;11.21;nan;101477.75;5006956;28;19928;-37
2022/11/15 03:56:31;;;;;;;;;;;;;;;11.20;nan;101474.25;5006578;28;20299;-40
2022/11/15 03:58:56;;;;;;;;;;;;;;;11.21;nan;101464.34;5005916;28;19917;-36
2022/11/15 04:01:22;;;;;;;;;;;;;;;11.20;nan;101471.56;5003349;28;20265;-39
2022/11/15 04:03:47;;;;;;;;;;;;;;;11.24;nan;101469.25;5006719;28;19924;-39
2022/11/15 04:06:13;;;;;;;;;;;;;;;11.27;nan;101467.94;5006750;28;19921;-40
2022/11/15 04:08:38;;;;;;;;;;;;;;;11.30;nan;101472.84;5003942;28;19925;-37
2022/11/15 04:11:03;;;;;;;;;;;;;;;11.29;nan;101463.97;5003614;28;20671;-39
2022/11/15 04:13:29;;;;;;;;;;;;;;;11.31;nan;101461.06;5005882;28;20509;-39
2022/11/15 04:15:54;;;;;;;;;;;;;;;11.32;nan;101457.34;5007664;28;19918;-39
2022/11/15 04:18:19;;;;;;;;;;;;;;;11.35;nan;101464.91;5007007;28;19918;-40
2022/11/15 04:26:17;;;;;;;;;;;;;;;11.45;nan;101459.75;5006979;28;19928;-37
2022/11/15 04:29:43;;;;;;;;;;;;;;;11.46;nan;101462.19;5005480;28;20160;-38
2022/11/15 04:31:37;;;;;;;;;;;;;;;11.45;nan;101457.06;5000409;28;20580;-38
2022/11/15 04:34:02;;;;;;;;;;;;;;;11.47;nan;101460.34;5005304;28;19921;-41
2022/11/15 04:39:11;;;;;;;;;;;;;;;11.47;nan;101455.78;5007166;28;20062;-37
2022/11/15 04:41:36;;;;;;;;;;;;;;;11.48;nan;101451.22;5001995;28;19975;-37
2022/11/15 04:44:02;;;;;;;;;;;;;;;11.48;nan;101453.91;5002310;28;20346;-41
2022/11/15 04:46:27;;;;;;;;;;;;;;;11.46;nan;101450.66;5006293;28;19922;-38
2022/11/15 04:48:53;;;;;;;;;;;;;;;11.46;nan;101442.59;5002917;28;20339;-41
2022/11/15 04:51:18;;;;;;;;;;;;;;;11.45;nan;101444.47;5007329;28;20375;-39
2022/11/15 04:53:44;;;;;;;;;;;;;;;11.45;nan;101438.28;5003419;28;20564;-36
2022/11/15 04:56:09;;;;;;;;;;;;;;;11.43;nan;101445.75;5004305;28;19925;-40
2022/11/15 04:58:35;;;;;;;;;;;;;;;11.41;nan;101448.69;5006062;28;19928;-39
2022/11/15 05:01:09;;;;;;;;;;;;;;;11.40;nan;101452.41;5005015;28;19947;-39
2022/11/15 05:06:18;;;;;;;;;;;;;;;11.40;nan;101449.75;5004283;28;20040;-38
2022/11/15 05:08:44;;;;;;;;;;;;;;;11.40;nan;101444.38;5004943;28;20040;-40
2022/11/15 05:11:09;;;;;;;;;;;;;;;11.41;nan;101451.38;5005360;28;20004;-37
2022/11/15 05:13:34;;;;;;;;;;;;;;;11.43;nan;101446.56;5003656;28;19924;-39
2022/11/15 05:15:59;;;;;;;;;;;;;;;11.42;nan;101444.13;5001401;28;19925;-37
2022/11/15 05:18:25;;;;;;;;;;;;;;;11.39;nan;101445.44;5005344;28;19972;-40
2022/11/15 05:20:50;;;;;;;;;;;;;;;11.34;nan;101452.56;5005218;28;19917;-41
2022/11/15 05:23:15;;;;;;;;;;;;;;;11.30;nan;101437.97;5006024;28;19991;-37
2022/11/15 05:25:41;;;;;;;;;;;;;;;11.25;nan;101444.03;5003842;28;19921;-40
2022/11/15 05:28:06;;;;;;;;;;;;;;;11.23;nan;101445.34;5003184;28;19926;-36
2022/11/15 05:30:31;;;;;;;;;;;;;;;11.21;nan;101448.25;5004946;28;19921;-38
2022/11/15 05:32:57;;;;;;;;;;;;;;;11.17;nan;101441.72;5005616;28;19917;-38
2022/11/15 05:35:38;;;;;;;;;;;;;;;11.11;nan;101434.59;5003235;28;19929;-41
2022/11/15 05:38:04;;;;;;;;;;;;;;;11.06;nan;101434.50;5001292;28;19929;-39
2022/11/15 05:40:30;;;;;;;;;;;;;;;11.04;nan;101433.91;5003751;28;20084;-38
2022/11/15 05:42:55;;;;;;;;;;;;;;;11.02;nan;101436.84;5003706;28;20426;-39
2022/11/15 05:45:21;;;;;;;;;;;;;;;11.02;nan;101439.53;5002662;28;19933;-38
2022/11/15 05:47:47;;;;;;;;;;;;;;;11.03;nan;101443.84;5001836;28;20283;-41
2022/11/15 05:50:13;;;;;;;;;;;;;;;11.02;nan;101439.53;5002363;28;19988;-41
2022/11/15 05:52:39;;;;;;;;;;;;;;;11.00;nan;101444.31;5005260;28;20008;-40
2022/11/15 05:55:05;;;;;;;;;;;;;;;10.97;nan;101441.28;5001884;28;20055;-41
2022/11/15 05:57:31;;;;;;;;;;;;;;;10.97;nan;101431.38;5003069;28;19925;-38
2022/11/15 05:59:56;;;;;;;;;;;;;;;10.98;nan;101433.00;4997887;28;20306;-38
2022/11/15 06:02:21;;;;;;;;;;;;;;;10.99;nan;101447.22;5003786;28;19932;-39
2022/11/15 06:04:47;;;;;;;;;;;;;;;10.98;nan;101437.56;5003730;28;19925;-39
2022/11/15 06:07:12;;;;;;;;;;;;;;;11.01;nan;101448.63;5003419;28;19934;-37
2022/11/15 06:09:37;;;;;;;;;;;;;;;11.02;nan;101441.38;5003433;28;20082;-37
2022/11/15 06:12:03;;;;;;;;;;;;;;;11.05;nan;101443.59;5003217;28;19921;-39
2022/11/15 06:14:28;;;;;;;;;;;;;;;11.05;nan;101439.06;5003179;28;19917;-39
2022/11/15 06:16:53;;;;;;;;;;;;;;;11.07;nan;101450.34;5005309;28;19957;-37
2022/11/15 06:19:19;;;;;;;;;;;;;;;11.07;nan;101441.50;5005082;28;19918;-39
2022/11/15 06:21:44;;;;;;;;;;;;;;;11.07;nan;101436.94;5000569;28;19917;-39
2022/11/15 06:24:10;;;;;;;;;;;;;;;11.07;nan;101446.84;5001883;28;20059;-38
2022/11/15 06:26:35;;;;;;;;;;;;;;;11.07;nan;101439.63;5005302;28;19925;-38
2022/11/15 06:29:02;;;;;;;;;;;;;;;11.09;nan;101450.94;5004978;28;19935;-38
2022/11/15 06:31:27;;;;;;;;;;;;;;;11.12;nan;101446.97;5004910;28;19933;-41
2022/11/15 06:33:52;;;;;;;;;;;;;;;11.12;nan;101453.13;4999610;28;19926;-39
2022/11/15 06:36:18;;;;;;;;;;;;;;;11.09;nan;101450.94;5000887;28;20303;-40
2022/11/15 06:38:44;;;;;;;;;;;;;;;11.09;nan;101461.66;5000585;28;20004;-40
2022/11/15 06:41:10;;;;;;;;;;;;;;;11.04;nan;101453.50;5003678;28;19925;-38
2022/11/15 06:43:36;;;;;;;;;;;;;;;11.05;nan;101457.81;5004898;28;19953;-40
2022/11/15 06:46:02;;;;;;;;;;;;;;;11.04;nan;101458.88;5003282;28;19960;-40
2022/11/15 06:48:28;;;;;;;;;;;;;;;11.03;nan;101459.09;5005134;28;19918;-38
2022/11/15 06:50:54;;;;;;;;;;;;;;;11.04;nan;101456.19;5004759;28;19929;-39
2022/11/15 06:53:19;;;;;;;;;;;;;;;11.05;nan;101462.38;5003917;28;20284;-40
2022/11/15 06:55:44;;;;;;;;;;;;;;;11.08;nan;101459.22;5005174;28;19929;-39
2022/11/15 06:58:10;;;;;;;;;;;;;;;11.05;nan;101459.69;5005144;28;20329;-42
2022/11/15 07:00:35;;;;;;;;;;;;;;;11.03;nan;101449.19;5005162;28;19928;-39
2022/11/15 07:03:00;;;;;;;;;;;;;;;11.06;nan;101455.94;5004707;28;20383;-39
2022/11/15 07:05:26;;;;;;;;;;;;;;;11.07;nan;101449.53;5004969;28;19917;-40
2022/11/15 07:07:53;;;;;;;;;;;;;;;11.07;nan;101453.03;5004591;28;19917;-41
2022/11/15 07:10:18;;;;;;;;;;;;;;;11.07;nan;101458.41;5004763;28;20003;-37
2022/11/15 07:12:46;;;;;;;;;;;;;;;11.09;nan;101460.84;5025845;22;20008;-32
2022/11/15 07:15:12;;;;;;;;;;;;;;;11.11;nan;101458.75;5014914;28;19934;-31
2022/11/15 07:17:37;;;;;;;;;;;;;;;11.12;nan;101460.38;5011287;28;19917;-31
2022/11/15 07:20:03;;;;;;;;;;;;;;;11.11;nan;101462.25;5012503;28;20067;-32
2022/11/15 07:22:28;;;;;;;;;;;;;;;11.09;nan;101458.97;5017725;28;19925;-32
2022/11/15 07:24:54;;;;;;;;;;;;;;;11.10;nan;101465.97;5019196;28;19921;-32
2022/11/15 07:27:19;;;;;;;;;;;;;;;11.13;nan;101473.56;5017012;28;19925;-31
2022/11/15 07:29:44;;;;;;;;;;;;;;;11.11;nan;101475.66;5020449;28;19921;-32
2022/11/15 07:32:10;;;;;;;;;;;;;;;11.13;nan;101486.13;5016356;28;20003;-31
2022/11/15 07:34:35;;;;;;;;;;;;;;;11.12;nan;101482.66;5020835;28;19956;-31
2022/11/15 07:37:00;;;;;;;;;;;;;;;11.13;nan;101473.56;5017586;28;19922;-31
2022/11/15 07:39:25;;;;;;;;;;;;;;;11.16;nan;101478.47;5019944;28;19924;-31
2022/11/15 07:42:52;;;;;;;;;;;;;;;11.20;nan;101470.75;5016658;28;19940;-32
2022/11/15 07:44:36;;;;;;;;;;;;;;;11.25;nan;101475.41;5016302;28;20390;-32
2022/11/15 07:47:02;;;;;;;;;;;;;;;11.26;nan;101471.69;5013135;28;19928;-32
2022/11/15 07:49:27;;;;;;;;;;;;;;;11.28;nan;101480.31;5016789;28;19928;-32
2022/11/15 07:51:52;;;;;;;;;;;;;;;11.27;nan;101484.84;5018925;28;19917;-32
2022/11/15 07:54:17;;;;;;;;;;;;;;;11.27;nan;101476.81;5015210;28;19921;-31
2022/11/15 07:56:43;;;;;;;;;;;;;;;11.27;nan;101486.72;5019042;28;19921;-31
2022/11/15 07:59:08;;;;;;;;;;;;;;;11.28;nan;101485.69;5018325;28;20279;-31
2022/11/15 08:01:33;;;;;;;;;;;;;;;11.29;nan;101482.75;5018732;28;19924;-31
2022/11/15 08:03:59;;;;;;;;;;;;;;;11.31;nan;101479.84;5017962;28;19961;-31
2022/11/15 08:06:24;;;;;;;;;;;;;;;11.32;nan;101487.69;5019403;28;20003;-32
2022/11/15 08:08:49;;;;;;;;;;;;;;;11.36;nan;101482.66;5016033;28;19921;-32
2022/11/15 08:11:15;;;;;;;;;;;;;;;11.37;nan;101477.03;5019001;28;20283;-31
2022/11/15 08:13:40;;;;;;;;;;;;;;;11.38;nan;101480.53;5017348;28;19944;-32
2022/11/15 08:16:05;;;;;;;;;;;;;;;11.40;nan;101486.50;5015101;28;19959;-32
2022/11/15 08:18:31;;;;;;;;;;;;;;;11.42;nan;101481.69;5018571;28;20012;-32
2022/11/15 08:21:00;;;;;;;;;;;;;;;11.44;nan;101484.97;5018733;28;19925;-32
2022/11/15 08:23:25;;;;;;;;;;;;;;;11.44;nan;101476.91;5020116;28;19922;-31
2022/11/15 08:25:50;;;;;;;;;;;;;;;11.44;nan;101472.34;5017895;28;19925;-31
2022/11/15 08:28:16;;;;;;;;;;;;;;;11.42;nan;101476.34;5018423;28;19924;-31
2022/11/15 08:30:42;;;;;;;;;;;;;;;11.41;nan;101475.50;5023002;28;19928;-31
2022/11/15 08:33:10;;;;;;;;;;;;;;;11.46;nan;101467.56;5022568;28;20036;-31
2022/11/15 08:35:35;;;;;;;;;;;;;;;11.50;nan;101468.75;5020776;28;19925;-32
2022/11/15 08:38:01;;;;;;;;;;;;;;;11.54;nan;101466.41;5021545;28;19944;-32
2022/11/15 08:40:26;;;;;;;;;;;;;;;11.58;nan;101453.31;5021026;28;19956;-32
2022/11/15 08:42:52;;;;;;;;;;;;;;;11.63;nan;101456.09;5020540;28;19940;-32
2022/11/15 08:45:17;;;;;;;;;;;;;;;11.66;nan;101456.44;5018332;28;19925;-32
2022/11/15 08:47:42;;;;;;;;;;;;;;;11.68;nan;101457.03;5019133;28;19983;-32
2022/11/15 08:50:08;;;;;;;;;;;;;;;11.72;nan;101454.69;5019886;28;20040;-32
2022/11/15 08:52:33;;;;;;;;;;;;;;;11.74;nan;101461.44;5022650;28;19970;-31
2022/11/15 08:54:59;;;;;;;;;;;;;;;11.77;nan;101460.16;5017188;28;19920;-31
2022/11/15 08:57:24;;;;;;;;;;;;;;;11.77;nan;101457.47;5021931;28;19975;-32
2022/11/15 08:59:49;;;;;;;;;;;;;;;11.77;nan;101462.84;5023141;28;19987;-31
2022/11/15 09:02:15;;;;;;;;;;;;;;;11.79;nan;101458.06;5022318;28;19928;-32
2022/11/15 09:04:42;;;;;;;;;;;;;;;11.76;nan;101459.34;5021505;28;19929;-32
2022/11/15 09:07:07;;;;;;;;;;;;;;;11.78;nan;101459.09;5021058;28;19921;-32
2022/11/15 09:09:32;;;;;;;;;;;;;;;11.82;nan;101462.97;5021357;28;19932;-32
2022/11/15 09:11:58;;;;;;;;;;;;;;;11.87;nan;101456.91;5019460;28;19921;-32
2022/11/15 09:14:23;;;;;;;;;;;;;;;11.92;nan;101454.28;5022793;28;20016;-32
2022/11/15 09:16:48;;;;;;;;;;;;;;;11.96;nan;101458.94;5020658;28;19935;-32
2022/11/15 09:19:14;;;;;;;;;;;;;;;12.03;nan;101456.94;5020936;28;19925;-32
2022/11/15 09:21:40;;;;;;;;;;;;;;;12.10;nan;101462.16;5019956;28;20353;-32
2022/11/15 09:24:05;;;;;;;;;;;;;;;12.14;nan;101462.50;5019706;28;19947;-32
2022/11/15 09:26:30;;;;;;;;;;;;;;;12.16;nan;101455.00;5022834;28;19917;-32
2022/11/15 09:28:56;;;;;;;;;;;;;;;12.20;nan;101450.75;5018975;28;20031;-32
2022/11/15 09:31:21;;;;;;;;;;;;;;;12.21;nan;101455.09;5023891;28;19956;-32
2022/11/15 09:33:46;;;;;;;;;;;;;;;12.23;nan;101461.88;5020143;28;19920;-32
2022/11/15 09:36:12;;;;;;;;;;;;;;;12.26;nan;101453.31;5019950;28;19965;-32
2022/11/15 09:38:37;;;;;;;;;;;;;;;12.31;nan;101456.09;5016312;28;19960;-32
2022/11/15 09:41:15;;;;;;;;;;;;;;;12.37;nan;101460.47;5017601;28;19960;-32
2022/11/15 09:43:53;;;;;;;;;;;;;;;12.43;nan;101466.78;5021978;28;20195;-32
2022/11/15 09:46:24;;;;;;;;;;;;;;;12.49;nan;101463.13;5023115;28;19921;-31
2022/11/15 09:48:49;;;;;;;;;;;;;;;12.55;nan;101466.69;5020607;28;19975;-31
2022/11/15 09:51:21;;;;;;;;;;;;;;;12.58;nan;101463.53;5020421;28;19922;-32
2022/11/15 09:53:58;;;;;;;;;;;;;;;12.62;nan;101459.31;5021575;28;20351;-31
2022/11/15 09:56:27;;;;;;;;;;;;;;;12.69;nan;101459.94;5023589;28;19924;-32
2022/11/15 09:59:05;;;;;;;;;;;;;;;12.75;nan;101463.50;5021351;28;19913;-31
2022/11/15 10:01:36;;;;;;;;;;;;;;;12.81;nan;101460.69;5022100;28;19952;-32
2022/11/15 10:04:01;;;;;;;;;;;;;;;12.90;nan;101448.44;5016862;28;19925;-32
2022/11/15 10:06:27;;;;;;;;;;;;;;;13.00;nan;101451.28;5023344;28;20040;-32
2022/11/15 10:08:55;;;;;;;;;;;;;;;13.05;nan;101447.84;5019851;28;19937;-31
2022/11/15 10:11:23;;;;;;;;;;;;;;;13.11;nan;101435.31;5023494;28;19924;-32
2022/11/15 10:13:50;;;;;;;;;;;;;;;13.15;nan;101431.88;5017950;28;20361;-31
2022/11/15 10:16:18;;;;;;;;;;;;;;;13.18;nan;101422.50;5021698;28;19928;-32
2022/11/15 10:18:52;;;;;;;;;;;;;;;13.22;nan;101421.75;5021159;28;19928;-31
2022/11/15 10:21:25;;;;;;;;;;;;;;;13.26;nan;101420.19;5021624;28;20531;-32
2022/11/15 10:23:50;;;;;;;;;;;;;;;13.31;nan;101422.16;5017770;28;20393;-31
2022/11/15 10:26:16;;;;;;;;;;;;;;;13.32;nan;101423.78;5022276;28;19917;-31
2022/11/15 10:28:42;;;;;;;;;;;;;;;13.37;nan;101420.34;5016466;28;20379;-32
2022/11/15 10:31:27;;;;;;;;;;;;;;;13.39;nan;101420.88;5017581;28;20286;-32
2022/11/15 10:34:18;;;;;;;;;;;;;;;13.36;nan;101424.91;5017410;28;20191;-31
2022/11/15 10:36:54;;;;;;;;;;;;;;;13.38;nan;101406.63;5019525;28;19929;-32
2022/11/15 10:39:19;;;;;;;;;;;;;;;13.39;nan;101416.31;5022572;28;19978;-31
2022/11/15 10:41:44;;;;;;;;;;;;;;;13.47;nan;101413.22;5020901;28;20000;-32
2022/11/15 10:44:16;;;;;;;;;;;;;;;13.55;nan;101404.66;5017259;28;19917;-32
2022/11/15 10:46:42;;;;;;;;;;;;;;;13.63;nan;101405.28;5017349;28;20004;-32
2022/11/15 10:49:13;;;;;;;;;;;;;;;13.66;nan;101404.81;5020661;28;20332;-32
2022/11/15 10:51:41;;;;;;;;;;;;;;;13.66;nan;101404.81;5021282;28;20004;-32
2022/11/15 10:54:10;;;;;;;;;;;;;;;13.64;nan;101396.13;5020173;28;19925;-32
2022/11/15 10:56:35;;;;;;;;;;;;;;;13.67;nan;101393.78;5021970;28;19917;-32
2022/11/15 10:59:01;;;;;;;;;;;;;;;13.75;nan;101395.19;5019724;28;19932;-32
2022/11/15 11:01:27;;;;;;;;;;;;;;;13.82;nan;101398.50;5022103;28;19917;-32
2022/11/15 11:03:59;;;;;;;;;;;;;;;13.81;nan;101403.06;5014725;28;20322;-32
2022/11/15 11:06:24;;;;;;;;;;;;;;;13.84;nan;101401.78;5013599;28;20346;-32
2022/11/15 11:09:00;;;;;;;;;;;;;;;13.90;nan;101408.81;5020056;28;20011;-32
2022/11/15 11:11:46;;;;;;;;;;;;;;;13.91;nan;101402.38;5018004;28;19960;-31
2022/11/15 11:14:13;;;;;;;;;;;;;;;13.96;nan;101404.28;5018925;28;20040;-32
2022/11/15 11:16:44;;;;;;;;;;;;;;;13.98;nan;101392.19;5018837;28;20012;-32
2022/11/15 11:19:36;;;;;;;;;;;;;;;14.01;nan;101389.00;5019884;28;19917;-32
2022/11/15 11:22:01;;;;;;;;;;;;;;;14.07;nan;101389.88;5018779;28;19932;-32
2022/11/15 11:24:26;;;;;;;;;;;;;;;14.13;nan;101388.81;5019436;28;19917;-32
2022/11/15 11:27:04;;;;;;;;;;;;;;;14.18;nan;101387.00;5019802;28;19929;-32
2022/11/15 11:29:47;;;;;;;;;;;;;;;14.22;nan;101387.31;5020163;28;19921;-32
2022/11/15 11:32:18;;;;;;;;;;;;;;;14.23;nan;101377.34;5019809;28;19975;-32
2022/11/15 11:34:49;;;;;;;;;;;;;;;14.27;nan;101370.34;5018844;28;20298;-32
2022/11/15 11:37:21;;;;;;;;;;;;;;;14.31;nan;101374.97;5021044;28;19921;-32
2022/11/15 11:39:46;;;;;;;;;;;;;;;14.31;nan;101374.97;5018484;28;19928;-32
2022/11/15 11:42:26;;;;;;;;;;;;;;;14.30;nan;101372.53;5014711;28;19933;-31
2022/11/15 11:44:54;;;;;;;;;;;;;;;14.31;nan;101357.97;5018917;28;19956;-32
2022/11/15 11:47:24;;;;;;;;;;;;;;;14.31;nan;101356.09;5020726;28;20345;-32
2022/11/15 11:49:59;;;;;;;;;;;;;;;14.34;nan;101357.47;5017809;28;19921;-32
2022/11/15 11:52:45;;;;;;;;;;;;;;;14.37;nan;101355.09;5015901;28;20013;-32
2022/11/15 11:55:16;;;;;;;;;;;;;;;14.42;nan;101346.22;5003752;28;20004;-32
2022/11/15 11:57:46;;;;;;;;;;;;;;;14.46;nan;101348.16;5017612;28;20173;-32
2022/11/15 12:00:27;;;;;;;;;;;;;;;14.48;nan;101347.91;5023163;28;19925;-32
2022/11/15 12:03:11;;;;;;;;;;;;;;;14.44;nan;101336.00;5020821;28;19925;-32
2022/11/15 12:05:39;;;;;;;;;;;;;;;14.45;nan;101337.63;5018186;28;19928;-32
2022/11/15 12:08:15;;;;;;;;;;;;;;;14.47;nan;101343.56;5023210;28;20016;-32
2022/11/15 12:10:45;;;;;;;;;;;;;;;14.48;nan;101343.31;5013263;28;19929;-32
2022/11/15 12:13:16;;;;;;;;;;;;;;;14.54;nan;101346.03;5014408;28;20176;-31
2022/11/15 12:15:42;;;;;;;;;;;;;;;14.54;nan;101346.84;5022285;28;20335;-32
2022/11/15 12:18:11;;;;;;;;;;;;;;;14.56;nan;101350.13;5020428;28;19925;-32
2022/11/15 12:20:40;;;;;;;;;;;;;;;14.59;nan;101343.41;5016150;28;20218;-32
2022/11/15 12:23:05;;;;;;;;;;;;;;;14.59;nan;101343.41;5021118;28;19956;-32
2022/11/15 12:25:49;;;;;;;;;;;;;;;14.58;nan;101339.88;5020534;28;19948;-32
2022/11/15 12:28:21;;;;;;;;;;;;;;;14.54;nan;101338.75;5016066;28;19932;-32
2022/11/15 12:31:01;;;;;;;;;;;;;;;14.54;nan;101336.06;5019389;28;19925;-32
2022/11/15 12:33:45;;;;;;;;;;;;;;;14.58;nan;101331.00;5020485;28;19971;-32
2022/11/15 12:36:22;;;;;;;;;;;;;;;14.63;nan;101322.91;5023840;28;19921;-31
2022/11/15 12:38:54;;;;;;;;;;;;;;;14.66;nan;101327.78;5019781;28;20464;-32
2022/11/15 12:41:20;;;;;;;;;;;;;;;14.73;nan;101329.19;5017505;28;19921;-32
2022/11/15 12:43:46;;;;;;;;;;;;;;;14.78;nan;101331.91;5019722;28;20056;-32
2022/11/15 12:46:41;;;;;;;;;;;;;;;14.77;nan;101330.28;5021728;28;19990;-32
2022/11/15 12:49:11;;;;;;;;;;;;;;;14.80;nan;101329.75;4951821;28;20345;-32
2022/11/15 12:51:42;;;;;;;;;;;;;;;14.82;nan;101324.91;5021326;28;20397;-32
2022/11/15 12:54:23;;;;;;;;;;;;;;;14.85;nan;101320.06;5016927;28;19917;-32
2022/11/15 12:57:03;;;;;;;;;;;;;;;14.89;nan;101316.56;5016799;28;19921;-32
2022/11/15 12:59:48;;;;;;;;;;;;;;;14.90;nan;101320.09;5017029;28;20157;-32
2022/11/15 13:02:18;;;;;;;;;;;;;;;14.90;nan;101302.03;5022696;28;19921;-32
2022/11/15 13:04:43;;;;;;;;;;;;;;;14.94;nan;101307.72;5015193;28;20028;-32
2022/11/15 13:07:28;;;;;;;;;;;;;;;14.94;nan;101308.53;5021765;28;20020;-33
2022/11/15 13:09:55;;;;;;;;;;;;;;;14.99;nan;101313.94;5019781;28;20395;-32
2022/11/15 13:12:26;;;;;;;;;;;;;;;15.02;nan;101312.59;5018904;28;19911;-33
2022/11/15 13:14:56;;;;;;;;;;;;;;;15.05;nan;101309.34;5018725;28;19920;-32